sensor_id;sensor_type;location;lat;lon;timestamp;P1;durP1;ratioP1;P2;durP2;ratioP2
3543;SDS011;1786;52.870;9.578;2022-07-04T00:00:10;2.23;;;2.13;;
3543;SDS011;1786;52.870;9.578;2022-07-04T00:02:37;3.37;;;2.63;;
3543;SDS011;1786;52.870;9.578;2022-07-04T00:05:06;3.80;;;2.27;;
3543;SDS011;1786;52.870;9.578;2022-07-04T00:07:37;4.70;;;2.10;;
3543;SDS011;1786;52.870;9.578;2022-07-04T00:10:04;6.73;;;2.73;;
3543;SDS011;1786;52.870;9.578;2022-07-04T00:12:32;2.17;;;2.07;;
3543;SDS011;1786;52.870;9.578;2022-07-04T00:14:59;6.43;;;1.93;;
3543;SDS011;1786;52.870;9.578;2022-07-04T00:17:26;3.10;;;2.30;;
3543;SDS011;1786;52.870;9.578;2022-07-04T00:19:53;3.63;;;2.80;;
3543;SDS011;1786;52.870;9.578;2022-07-04T00:22:20;6.17;;;2.40;;
3543;SDS011;1786;52.870;9.578;2022-07-04T00:24:46;2.83;;;2.60;;
3543;SDS011;1786;52.870;9.578;2022-07-04T00:27:13;2.50;;;2.40;;
3543;SDS011;1786;52.870;9.578;2022-07-04T00:29:41;2.70;;;2.50;;
3543;SDS011;1786;52.870;9.578;2022-07-04T00:32:07;2.67;;;2.50;;
3543;SDS011;1786;52.870;9.578;2022-07-04T00:34:34;6.43;;;2.80;;
3543;SDS011;1786;52.870;9.578;2022-07-04T00:37:02;3.80;;;2.30;;
3543;SDS011;1786;52.870;9.578;2022-07-04T00:39:29;9.00;;;2.80;;
3543;SDS011;1786;52.870;9.578;2022-07-04T00:41:55;2.97;;;2.67;;
3543;SDS011;1786;52.870;9.578;2022-07-04T00:44:22;2.83;;;2.63;;
3543;SDS011;1786;52.870;9.578;2022-07-04T00:46:49;4.50;;;2.60;;
3543;SDS011;1786;52.870;9.578;2022-07-04T00:49:16;4.20;;;2.70;;
3543;SDS011;1786;52.870;9.578;2022-07-04T00:51:45;4.43;;;2.47;;
3543;SDS011;1786;52.870;9.578;2022-07-04T00:54:13;3.07;;;2.50;;
3543;SDS011;1786;52.870;9.578;2022-07-04T00:56:44;3.30;;;3.10;;
3543;SDS011;1786;52.870;9.578;2022-07-04T00:59:11;7.33;;;2.90;;
3543;SDS011;1786;52.870;9.578;2022-07-04T01:01:38;5.10;;;3.43;;
3543;SDS011;1786;52.870;9.578;2022-07-04T01:04:05;15.07;;;5.50;;
3543;SDS011;1786;52.870;9.578;2022-07-04T01:06:33;3.67;;;3.43;;
3543;SDS011;1786;52.870;9.578;2022-07-04T01:09:00;4.50;;;3.30;;
3543;SDS011;1786;52.870;9.578;2022-07-04T01:11:27;7.80;;;3.90;;
3543;SDS011;1786;52.870;9.578;2022-07-04T01:13:54;3.73;;;3.40;;
3543;SDS011;1786;52.870;9.578;2022-07-04T01:16:20;3.73;;;3.60;;
3543;SDS011;1786;52.870;9.578;2022-07-04T01:18:47;3.83;;;3.60;;
3543;SDS011;1786;52.870;9.578;2022-07-04T01:21:14;4.10;;;3.63;;
3543;SDS011;1786;52.870;9.578;2022-07-04T01:23:41;5.20;;;3.80;;
3543;SDS011;1786;52.870;9.578;2022-07-04T01:26:08;6.60;;;4.47;;
3543;SDS011;1786;52.870;9.578;2022-07-04T01:28:35;4.83;;;3.47;;
3543;SDS011;1786;52.870;9.578;2022-07-04T01:31:01;4.03;;;3.70;;
3543;SDS011;1786;52.870;9.578;2022-07-04T01:33:29;4.90;;;3.83;;
3543;SDS011;1786;52.870;9.578;2022-07-04T01:35:55;3.50;;;3.20;;
3543;SDS011;1786;52.870;9.578;2022-07-04T01:38:22;3.30;;;3.20;;
3543;SDS011;1786;52.870;9.578;2022-07-04T01:40:49;5.33;;;4.10;;
3543;SDS011;1786;52.870;9.578;2022-07-04T01:43:15;3.73;;;3.40;;
3543;SDS011;1786;52.870;9.578;2022-07-04T01:45:42;4.03;;;3.63;;
3543;SDS011;1786;52.870;9.578;2022-07-04T01:48:10;4.03;;;3.50;;
3543;SDS011;1786;52.870;9.578;2022-07-04T01:50:37;7.47;;;3.50;;
3543;SDS011;1786;52.870;9.578;2022-07-04T01:53:05;3.70;;;3.50;;
3543;SDS011;1786;52.870;9.578;2022-07-04T01:55:32;3.60;;;3.33;;
3543;SDS011;1786;52.870;9.578;2022-07-04T01:57:59;5.33;;;3.80;;
3543;SDS011;1786;52.870;9.578;2022-07-04T02:00:29;3.50;;;3.20;;
3543;SDS011;1786;52.870;9.578;2022-07-04T02:03:14;3.40;;;3.10;;
3543;SDS011;1786;52.870;9.578;2022-07-04T02:05:42;5.47;;;3.70;;
3543;SDS011;1786;52.870;9.578;2022-07-04T02:08:09;3.73;;;3.53;;
3543;SDS011;1786;52.870;9.578;2022-07-04T02:10:37;3.53;;;3.23;;
3543;SDS011;1786;52.870;9.578;2022-07-04T02:13:04;3.93;;;3.40;;
3543;SDS011;1786;52.870;9.578;2022-07-04T02:15:32;3.57;;;3.27;;
3543;SDS011;1786;52.870;9.578;2022-07-04T02:18:01;6.53;;;3.43;;
3543;SDS011;1786;52.870;9.578;2022-07-04T02:20:32;5.67;;;4.10;;
3543;SDS011;1786;52.870;9.578;2022-07-04T02:23:00;12.33;;;3.67;;
3543;SDS011;1786;52.870;9.578;2022-07-04T02:25:28;3.93;;;3.63;;
3543;SDS011;1786;52.870;9.578;2022-07-04T02:27:54;5.30;;;3.83;;
3543;SDS011;1786;52.870;9.578;2022-07-04T02:30:22;4.90;;;4.27;;
3543;SDS011;1786;52.870;9.578;2022-07-04T02:32:49;4.10;;;3.80;;
3543;SDS011;1786;52.870;9.578;2022-07-04T02:35:16;5.80;;;4.07;;
3543;SDS011;1786;52.870;9.578;2022-07-04T02:37:43;4.30;;;3.90;;
3543;SDS011;1786;52.870;9.578;2022-07-04T02:40:10;4.43;;;3.87;;
3543;SDS011;1786;52.870;9.578;2022-07-04T02:42:37;5.10;;;4.47;;
3543;SDS011;1786;52.870;9.578;2022-07-04T02:45:04;4.03;;;3.83;;
3543;SDS011;1786;52.870;9.578;2022-07-04T02:47:31;4.43;;;4.13;;
3543;SDS011;1786;52.870;9.578;2022-07-04T02:49:58;4.43;;;4.23;;
3543;SDS011;1786;52.870;9.578;2022-07-04T02:52:28;8.50;;;4.90;;
3543;SDS011;1786;52.870;9.578;2022-07-04T02:54:55;9.63;;;4.40;;
3543;SDS011;1786;52.870;9.578;2022-07-04T02:57:22;8.07;;;4.70;;
3543;SDS011;1786;52.870;9.578;2022-07-04T02:59:49;7.50;;;4.67;;
3543;SDS011;1786;52.870;9.578;2022-07-04T03:02:15;5.70;;;4.77;;
3543;SDS011;1786;52.870;9.578;2022-07-04T03:04:42;4.77;;;4.27;;
3543;SDS011;1786;52.870;9.578;2022-07-04T03:07:09;5.13;;;4.73;;
3543;SDS011;1786;52.870;9.578;2022-07-04T03:09:35;6.90;;;5.03;;
3543;SDS011;1786;52.870;9.578;2022-07-04T03:12:02;6.50;;;6.00;;
3543;SDS011;1786;52.870;9.578;2022-07-04T03:14:29;7.00;;;4.43;;
3543;SDS011;1786;52.870;9.578;2022-07-04T03:16:56;6.00;;;5.50;;
3543;SDS011;1786;52.870;9.578;2022-07-04T03:19:23;14.30;;;5.33;;
3543;SDS011;1786;52.870;9.578;2022-07-04T03:21:49;7.93;;;5.60;;
3543;SDS011;1786;52.870;9.578;2022-07-04T03:24:16;7.43;;;5.13;;
3543;SDS011;1786;52.870;9.578;2022-07-04T03:26:43;6.40;;;5.90;;
3543;SDS011;1786;52.870;9.578;2022-07-04T03:29:10;7.23;;;5.00;;
3543;SDS011;1786;52.870;9.578;2022-07-04T03:31:37;8.77;;;5.60;;
3543;SDS011;1786;52.870;9.578;2022-07-04T03:34:04;6.67;;;6.00;;
3543;SDS011;1786;52.870;9.578;2022-07-04T03:36:30;6.70;;;5.47;;
3543;SDS011;1786;52.870;9.578;2022-07-04T03:38:57;7.90;;;6.13;;
3543;SDS011;1786;52.870;9.578;2022-07-04T03:41:24;6.17;;;5.77;;
3543;SDS011;1786;52.870;9.578;2022-07-04T03:43:50;6.97;;;6.27;;
3543;SDS011;1786;52.870;9.578;2022-07-04T03:46:17;7.83;;;6.80;;
3543;SDS011;1786;52.870;9.578;2022-07-04T03:48:43;6.00;;;5.60;;
3543;SDS011;1786;52.870;9.578;2022-07-04T03:51:13;7.20;;;6.50;;
3543;SDS011;1786;52.870;9.578;2022-07-04T03:53:40;11.00;;;5.67;;
3543;SDS011;1786;52.870;9.578;2022-07-04T03:56:07;6.27;;;5.57;;
3543;SDS011;1786;52.870;9.578;2022-07-04T03:58:35;10.70;;;6.30;;
3543;SDS011;1786;52.870;9.578;2022-07-04T04:01:02;11.20;;;6.50;;
3543;SDS011;1786;52.870;9.578;2022-07-04T04:03:29;7.87;;;6.40;;
3543;SDS011;1786;52.870;9.578;2022-07-04T04:06:14;7.70;;;6.90;;
3543;SDS011;1786;52.870;9.578;2022-07-04T04:08:41;7.20;;;6.50;;
3543;SDS011;1786;52.870;9.578;2022-07-04T04:11:07;16.53;;;7.13;;
3543;SDS011;1786;52.870;9.578;2022-07-04T04:13:34;8.33;;;6.53;;
3543;SDS011;1786;52.870;9.578;2022-07-04T04:16:01;6.53;;;5.87;;
3543;SDS011;1786;52.870;9.578;2022-07-04T04:18:27;8.47;;;6.23;;
3543;SDS011;1786;52.870;9.578;2022-07-04T04:20:54;6.40;;;5.90;;
3543;SDS011;1786;52.870;9.578;2022-07-04T04:23:20;6.63;;;6.10;;
3543;SDS011;1786;52.870;9.578;2022-07-04T04:25:47;6.87;;;6.20;;
3543;SDS011;1786;52.870;9.578;2022-07-04T04:28:20;9.53;;;7.13;;
3543;SDS011;1786;52.870;9.578;2022-07-04T04:30:47;7.53;;;6.03;;
3543;SDS011;1786;52.870;9.578;2022-07-04T04:33:14;12.63;;;8.10;;
3543;SDS011;1786;52.870;9.578;2022-07-04T04:35:40;9.33;;;6.03;;
3543;SDS011;1786;52.870;9.578;2022-07-04T04:38:07;12.50;;;7.10;;
3543;SDS011;1786;52.870;9.578;2022-07-04T04:40:34;8.63;;;6.40;;
3543;SDS011;1786;52.870;9.578;2022-07-04T04:43:00;13.83;;;7.50;;
3543;SDS011;1786;52.870;9.578;2022-07-04T04:45:27;7.00;;;6.40;;
3543;SDS011;1786;52.870;9.578;2022-07-04T04:47:54;7.17;;;5.63;;
3543;SDS011;1786;52.870;9.578;2022-07-04T04:50:20;5.77;;;5.27;;
3543;SDS011;1786;52.870;9.578;2022-07-04T04:52:47;6.80;;;6.13;;
3543;SDS011;1786;52.870;9.578;2022-07-04T04:55:14;6.47;;;5.83;;
3543;SDS011;1786;52.870;9.578;2022-07-04T04:57:41;10.13;;;6.20;;
3543;SDS011;1786;52.870;9.578;2022-07-04T05:00:08;9.50;;;5.70;;
3543;SDS011;1786;52.870;9.578;2022-07-04T05:02:35;7.03;;;6.10;;
3543;SDS011;1786;52.870;9.578;2022-07-04T05:05:01;9.87;;;6.00;;
3543;SDS011;1786;52.870;9.578;2022-07-04T05:07:28;7.87;;;5.30;;
3543;SDS011;1786;52.870;9.578;2022-07-04T05:09:54;7.67;;;6.60;;
3543;SDS011;1786;52.870;9.578;2022-07-04T05:12:26;6.80;;;6.20;;
3543;SDS011;1786;52.870;9.578;2022-07-04T05:14:53;6.63;;;5.97;;
3543;SDS011;1786;52.870;9.578;2022-07-04T05:17:20;5.40;;;4.90;;
3543;SDS011;1786;52.870;9.578;2022-07-04T05:19:47;8.10;;;4.90;;
3543;SDS011;1786;52.870;9.578;2022-07-04T05:22:14;6.63;;;4.30;;
3543;SDS011;1786;52.870;9.578;2022-07-04T05:24:42;6.43;;;3.80;;
3543;SDS011;1786;52.870;9.578;2022-07-04T05:27:09;5.40;;;3.87;;
3543;SDS011;1786;52.870;9.578;2022-07-04T05:29:36;5.60;;;3.47;;
3543;SDS011;1786;52.870;9.578;2022-07-04T05:32:04;4.00;;;3.30;;
3543;SDS011;1786;52.870;9.578;2022-07-04T05:34:32;4.97;;;3.10;;
3543;SDS011;1786;52.870;9.578;2022-07-04T05:36:58;6.07;;;3.57;;
3543;SDS011;1786;52.870;9.578;2022-07-04T05:39:25;3.60;;;2.90;;
3543;SDS011;1786;52.870;9.578;2022-07-04T05:41:51;3.17;;;2.67;;
3543;SDS011;1786;52.870;9.578;2022-07-04T05:44:18;5.47;;;3.05;;
3543;SDS011;1786;52.870;9.578;2022-07-04T05:46:45;6.35;;;2.70;;
3543;SDS011;1786;52.870;9.578;2022-07-04T05:49:11;3.30;;;1.90;;
3543;SDS011;1786;52.870;9.578;2022-07-04T05:51:38;2.08;;;1.98;;
3543;SDS011;1786;52.870;9.578;2022-07-04T05:54:05;4.13;;;1.83;;
3543;SDS011;1786;52.870;9.578;2022-07-04T05:56:32;2.40;;;1.73;;
3543;SDS011;1786;52.870;9.578;2022-07-04T05:58:58;1.83;;;1.73;;
3543;SDS011;1786;52.870;9.578;2022-07-04T06:01:25;2.25;;;1.80;;
3543;SDS011;1786;52.870;9.578;2022-07-04T06:03:52;1.70;;;1.60;;
3543;SDS011;1786;52.870;9.578;2022-07-04T06:06:18;2.15;;;1.80;;
3543;SDS011;1786;52.870;9.578;2022-07-04T06:08:45;4.60;;;1.95;;
3543;SDS011;1786;52.870;9.578;2022-07-04T06:11:12;3.90;;;1.88;;
3543;SDS011;1786;52.870;9.578;2022-07-04T06:13:38;6.28;;;1.80;;
3543;SDS011;1786;52.870;9.578;2022-07-04T06:16:05;2.38;;;1.40;;
3543;SDS011;1786;52.870;9.578;2022-07-04T06:18:32;2.75;;;1.70;;
3543;SDS011;1786;52.870;9.578;2022-07-04T06:20:58;2.05;;;1.60;;
3543;SDS011;1786;52.870;9.578;2022-07-04T06:23:25;1.92;;;1.73;;
3543;SDS011;1786;52.870;9.578;2022-07-04T06:25:52;2.67;;;1.20;;
3543;SDS011;1786;52.870;9.578;2022-07-04T06:28:18;1.67;;;1.50;;
3543;SDS011;1786;52.870;9.578;2022-07-04T06:31:05;4.85;;;1.30;;
3543;SDS011;1786;52.870;9.578;2022-07-04T06:33:32;2.55;;;1.50;;
3543;SDS011;1786;52.870;9.578;2022-07-04T06:35:58;2.08;;;1.48;;
3543;SDS011;1786;52.870;9.578;2022-07-04T06:38:26;1.52;;;1.42;;
3543;SDS011;1786;52.870;9.578;2022-07-04T06:40:55;1.90;;;1.45;;
3543;SDS011;1786;52.870;9.578;2022-07-04T06:43:24;2.33;;;1.40;;
3543;SDS011;1786;52.870;9.578;2022-07-04T06:45:51;1.63;;;1.52;;
3543;SDS011;1786;52.870;9.578;2022-07-04T06:48:19;4.20;;;1.67;;
3543;SDS011;1786;52.870;9.578;2022-07-04T06:50:45;11.63;;;2.20;;
3543;SDS011;1786;52.870;9.578;2022-07-04T06:53:12;1.48;;;1.25;;
3543;SDS011;1786;52.870;9.578;2022-07-04T06:55:39;2.70;;;1.67;;
3543;SDS011;1786;52.870;9.578;2022-07-04T06:58:08;4.38;;;1.90;;
3543;SDS011;1786;52.870;9.578;2022-07-04T07:00:35;3.22;;;1.52;;
3543;SDS011;1786;52.870;9.578;2022-07-04T07:03:03;3.45;;;1.48;;
3543;SDS011;1786;52.870;9.578;2022-07-04T07:05:30;1.38;;;1.10;;
3543;SDS011;1786;52.870;9.578;2022-07-04T07:08:18;5.38;;;1.58;;
3543;SDS011;1786;52.870;9.578;2022-07-04T07:10:44;1.83;;;1.55;;
3543;SDS011;1786;52.870;9.578;2022-07-04T07:13:11;3.13;;;1.25;;
3543;SDS011;1786;52.870;9.578;2022-07-04T07:15:38;1.73;;;0.90;;
3543;SDS011;1786;52.870;9.578;2022-07-04T07:18:04;1.60;;;0.98;;
3543;SDS011;1786;52.870;9.578;2022-07-04T07:20:31;2.15;;;1.20;;
3543;SDS011;1786;52.870;9.578;2022-07-04T07:23:01;3.42;;;1.23;;
3543;SDS011;1786;52.870;9.578;2022-07-04T07:25:28;4.53;;;1.40;;
3543;SDS011;1786;52.870;9.578;2022-07-04T07:27:56;4.40;;;1.30;;
3543;SDS011;1786;52.870;9.578;2022-07-04T07:30:23;1.35;;;1.25;;
3543;SDS011;1786;52.870;9.578;2022-07-04T07:32:49;3.67;;;0.90;;
3543;SDS011;1786;52.870;9.578;2022-07-04T07:35:16;10.25;;;1.38;;
3543;SDS011;1786;52.870;9.578;2022-07-04T07:37:43;1.30;;;1.10;;
3543;SDS011;1786;52.870;9.578;2022-07-04T07:40:10;3.33;;;1.20;;
3543;SDS011;1786;52.870;9.578;2022-07-04T07:42:37;1.27;;;0.90;;
3543;SDS011;1786;52.870;9.578;2022-07-04T07:45:03;3.55;;;1.20;;
3543;SDS011;1786;52.870;9.578;2022-07-04T07:47:30;3.92;;;1.20;;
3543;SDS011;1786;52.870;9.578;2022-07-04T07:49:57;1.58;;;0.82;;
3543;SDS011;1786;52.870;9.578;2022-07-04T07:52:27;7.80;;;1.13;;
3543;SDS011;1786;52.870;9.578;2022-07-04T07:54:53;1.65;;;0.80;;
3543;SDS011;1786;52.870;9.578;2022-07-04T07:57:26;2.58;;;0.90;;
3543;SDS011;1786;52.870;9.578;2022-07-04T07:59:53;1.55;;;0.80;;
3543;SDS011;1786;52.870;9.578;2022-07-04T08:02:19;1.63;;;1.13;;
3543;SDS011;1786;52.870;9.578;2022-07-04T08:05:07;2.35;;;1.00;;
3543;SDS011;1786;52.870;9.578;2022-07-04T08:07:34;1.35;;;0.88;;
3543;SDS011;1786;52.870;9.578;2022-07-04T08:10:00;3.67;;;1.05;;
3543;SDS011;1786;52.870;9.578;2022-07-04T08:12:27;1.52;;;0.90;;
3543;SDS011;1786;52.870;9.578;2022-07-04T08:14:54;7.93;;;1.60;;
3543;SDS011;1786;52.870;9.578;2022-07-04T08:17:20;2.15;;;0.90;;
3543;SDS011;1786;52.870;9.578;2022-07-04T08:19:47;0.80;;;0.80;;
3543;SDS011;1786;52.870;9.578;2022-07-04T08:22:14;5.15;;;1.60;;
3543;SDS011;1786;52.870;9.578;2022-07-04T08:24:42;8.20;;;1.08;;
3543;SDS011;1786;52.870;9.578;2022-07-04T08:27:10;3.67;;;1.17;;
3543;SDS011;1786;52.870;9.578;2022-07-04T08:29:37;0.80;;;0.80;;
3543;SDS011;1786;52.870;9.578;2022-07-04T08:32:04;7.30;;;1.20;;
3543;SDS011;1786;52.870;9.578;2022-07-04T08:34:34;1.52;;;1.05;;
3543;SDS011;1786;52.870;9.578;2022-07-04T08:37:01;0.80;;;0.80;;
3543;SDS011;1786;52.870;9.578;2022-07-04T08:39:28;3.17;;;1.00;;
3543;SDS011;1786;52.870;9.578;2022-07-04T08:41:55;2.03;;;0.77;;
3543;SDS011;1786;52.870;9.578;2022-07-04T08:44:27;10.57;;;0.82;;
3543;SDS011;1786;52.870;9.578;2022-07-04T08:46:54;1.48;;;0.80;;
3543;SDS011;1786;52.870;9.578;2022-07-04T08:49:22;4.22;;;0.82;;
3543;SDS011;1786;52.870;9.578;2022-07-04T08:54:27;1.70;;;0.88;;
3543;SDS011;1786;52.870;9.578;2022-07-04T08:57:15;2.22;;;1.08;;
3543;SDS011;1786;52.870;9.578;2022-07-04T09:00:02;1.67;;;1.10;;
3543;SDS011;1786;52.870;9.578;2022-07-04T09:02:30;1.98;;;0.95;;
3543;SDS011;1786;52.870;9.578;2022-07-04T09:05:00;1.67;;;0.80;;
3543;SDS011;1786;52.870;9.578;2022-07-04T09:07:27;1.88;;;0.90;;
3543;SDS011;1786;52.870;9.578;2022-07-04T09:09:57;1.10;;;0.88;;
3543;SDS011;1786;52.870;9.578;2022-07-04T09:12:25;1.45;;;0.70;;
3543;SDS011;1786;52.870;9.578;2022-07-04T09:14:51;2.10;;;0.90;;
3543;SDS011;1786;52.870;9.578;2022-07-04T09:17:19;3.42;;;0.70;;
3543;SDS011;1786;52.870;9.578;2022-07-04T09:20:09;0.80;;;0.80;;
3543;SDS011;1786;52.870;9.578;2022-07-04T09:22:40;0.73;;;0.73;;
3543;SDS011;1786;52.870;9.578;2022-07-04T09:25:09;1.63;;;1.10;;
3543;SDS011;1786;52.870;9.578;2022-07-04T09:27:54;1.90;;;0.80;;
3543;SDS011;1786;52.870;9.578;2022-07-04T09:30:23;1.48;;;0.90;;
3543;SDS011;1786;52.870;9.578;2022-07-04T09:32:55;1.00;;;0.75;;
3543;SDS011;1786;52.870;9.578;2022-07-04T09:35:31;1.88;;;0.80;;
3543;SDS011;1786;52.870;9.578;2022-07-04T09:38:00;2.03;;;1.05;;
3543;SDS011;1786;52.870;9.578;2022-07-04T09:40:31;1.48;;;0.90;;
3543;SDS011;1786;52.870;9.578;2022-07-04T09:43:00;1.63;;;0.90;;
3543;SDS011;1786;52.870;9.578;2022-07-04T09:45:38;3.63;;;0.90;;
3543;SDS011;1786;52.870;9.578;2022-07-04T09:48:20;0.95;;;0.90;;
3543;SDS011;1786;52.870;9.578;2022-07-04T09:50:47;0.85;;;0.75;;
3543;SDS011;1786;52.870;9.578;2022-07-04T09:53:14;1.95;;;0.73;;
3543;SDS011;1786;52.870;9.578;2022-07-04T09:55:41;0.85;;;0.70;;
3543;SDS011;1786;52.870;9.578;2022-07-04T09:58:08;0.70;;;0.70;;
3543;SDS011;1786;52.870;9.578;2022-07-04T10:00:40;1.48;;;0.85;;
3543;SDS011;1786;52.870;9.578;2022-07-04T10:03:24;1.25;;;0.90;;
3543;SDS011;1786;52.870;9.578;2022-07-04T10:08:32;0.90;;;0.70;;
3543;SDS011;1786;52.870;9.578;2022-07-04T10:11:00;2.47;;;0.80;;
3543;SDS011;1786;52.870;9.578;2022-07-04T10:13:34;5.72;;;0.80;;
3543;SDS011;1786;52.870;9.578;2022-07-04T10:16:02;5.78;;;0.70;;
3543;SDS011;1786;52.870;9.578;2022-07-04T10:18:29;1.80;;;0.80;;
3543;SDS011;1786;52.870;9.578;2022-07-04T10:20:56;4.43;;;0.55;;
3543;SDS011;1786;52.870;9.578;2022-07-04T10:23:24;0.75;;;0.70;;
3543;SDS011;1786;52.870;9.578;2022-07-04T10:25:57;1.58;;;0.82;;
3543;SDS011;1786;52.870;9.578;2022-07-04T10:28:25;0.82;;;0.80;;
3543;SDS011;1786;52.870;9.578;2022-07-04T10:30:52;3.88;;;0.82;;
3543;SDS011;1786;52.870;9.578;2022-07-04T10:33:24;2.20;;;0.75;;
3543;SDS011;1786;52.870;9.578;2022-07-04T10:36:01;0.95;;;0.75;;
3543;SDS011;1786;52.870;9.578;2022-07-04T10:38:34;0.80;;;0.80;;
3543;SDS011;1786;52.870;9.578;2022-07-04T10:41:13;0.95;;;0.82;;
3543;SDS011;1786;52.870;9.578;2022-07-04T10:51:36;2.47;;;1.07;;
3543;SDS011;1786;52.870;9.578;2022-07-04T10:54:19;1.10;;;1.10;;
3543;SDS011;1786;52.870;9.578;2022-07-04T10:57:10;2.20;;;0.77;;
3543;SDS011;1786;52.870;9.578;2022-07-04T11:02:21;1.77;;;0.90;;
3543;SDS011;1786;52.870;9.578;2022-07-04T11:17:59;3.85;;;0.70;;
3543;SDS011;1786;52.870;9.578;2022-07-04T11:20:34;1.20;;;0.70;;
3543;SDS011;1786;52.870;9.578;2022-07-04T11:23:09;0.90;;;0.77;;
3543;SDS011;1786;52.870;9.578;2022-07-04T11:25:38;2.30;;;0.70;;
3543;SDS011;1786;52.870;9.578;2022-07-04T11:28:22;4.45;;;1.40;;
3543;SDS011;1786;52.870;9.578;2022-07-04T11:31:13;0.80;;;0.70;;
3543;SDS011;1786;52.870;9.578;2022-07-04T11:33:41;1.52;;;0.70;;
3543;SDS011;1786;52.870;9.578;2022-07-04T11:36:16;1.50;;;0.90;;
3543;SDS011;1786;52.870;9.578;2022-07-04T11:38:54;1.05;;;0.95;;
3543;SDS011;1786;52.870;9.578;2022-07-04T11:41:32;0.80;;;0.80;;
3543;SDS011;1786;52.870;9.578;2022-07-04T11:44:23;1.40;;;1.13;;
3543;SDS011;1786;52.870;9.578;2022-07-04T11:49:42;5.15;;;0.90;;
3543;SDS011;1786;52.870;9.578;2022-07-04T11:52:10;1.30;;;1.00;;
3543;SDS011;1786;52.870;9.578;2022-07-04T11:54:38;2.45;;;0.90;;
3543;SDS011;1786;52.870;9.578;2022-07-04T12:02:30;3.73;;;1.27;;
3543;SDS011;1786;52.870;9.578;2022-07-04T12:05:00;2.17;;;0.80;;
3543;SDS011;1786;52.870;9.578;2022-07-04T12:07:29;3.23;;;0.73;;
3543;SDS011;1786;52.870;9.578;2022-07-04T12:10:14;5.50;;;0.60;;
3543;SDS011;1786;52.870;9.578;2022-07-04T12:12:53;1.67;;;0.80;;
3543;SDS011;1786;52.870;9.578;2022-07-04T12:15:21;2.90;;;0.90;;
3543;SDS011;1786;52.870;9.578;2022-07-04T12:17:50;0.77;;;0.70;;
3543;SDS011;1786;52.870;9.578;2022-07-04T12:20:19;1.92;;;0.70;;
3543;SDS011;1786;52.870;9.578;2022-07-04T12:22:52;0.95;;;0.95;;
3543;SDS011;1786;52.870;9.578;2022-07-04T12:25:26;3.80;;;1.30;;
3543;SDS011;1786;52.870;9.578;2022-07-04T12:30:26;0.80;;;0.80;;
3543;SDS011;1786;52.870;9.578;2022-07-04T12:38:08;6.50;;;1.03;;
3543;SDS011;1786;52.870;9.578;2022-07-04T12:40:37;7.53;;;1.07;;
3543;SDS011;1786;52.870;9.578;2022-07-04T12:48:57;1.80;;;0.80;;
3543;SDS011;1786;52.870;9.578;2022-07-04T12:53:55;1.20;;;0.97;;
3543;SDS011;1786;52.870;9.578;2022-07-04T12:58:58;6.15;;;1.08;;
3543;SDS011;1786;52.870;9.578;2022-07-04T13:01:27;2.05;;;0.88;;
3543;SDS011;1786;52.870;9.578;2022-07-04T13:03:56;3.38;;;0.88;;
3543;SDS011;1786;52.870;9.578;2022-07-04T13:06:23;1.55;;;0.80;;
3543;SDS011;1786;52.870;9.578;2022-07-04T13:08:51;2.00;;;1.05;;
3543;SDS011;1786;52.870;9.578;2022-07-04T13:11:20;0.82;;;0.80;;
3543;SDS011;1786;52.870;9.578;2022-07-04T13:14:06;5.45;;;1.17;;
3543;SDS011;1786;52.870;9.578;2022-07-04T13:16:33;3.47;;;0.80;;
3543;SDS011;1786;52.870;9.578;2022-07-04T13:19:06;1.53;;;1.10;;
3543;SDS011;1786;52.870;9.578;2022-07-04T13:21:32;1.27;;;0.80;;
3543;SDS011;1786;52.870;9.578;2022-07-04T13:23:59;9.13;;;1.17;;
3543;SDS011;1786;52.870;9.578;2022-07-04T13:26:25;0.83;;;0.83;;
3543;SDS011;1786;52.870;9.578;2022-07-04T13:28:54;1.63;;;1.03;;
3543;SDS011;1786;52.870;9.578;2022-07-04T13:31:20;10.03;;;0.83;;
3543;SDS011;1786;52.870;9.578;2022-07-04T13:33:48;2.28;;;1.00;;
3543;SDS011;1786;52.870;9.578;2022-07-04T13:36:15;3.03;;;0.95;;
3543;SDS011;1786;52.870;9.578;2022-07-04T13:38:41;2.25;;;0.70;;
3543;SDS011;1786;52.870;9.578;2022-07-04T13:41:28;1.00;;;0.80;;
3543;SDS011;1786;52.870;9.578;2022-07-04T13:43:54;1.60;;;1.00;;
3543;SDS011;1786;52.870;9.578;2022-07-04T13:46:23;0.70;;;0.70;;
3543;SDS011;1786;52.870;9.578;2022-07-04T13:48:50;1.23;;;1.00;;
3543;SDS011;1786;52.870;9.578;2022-07-04T13:51:16;0.80;;;0.80;;
3543;SDS011;1786;52.870;9.578;2022-07-04T13:53:43;2.70;;;1.27;;
3543;SDS011;1786;52.870;9.578;2022-07-04T13:56:10;0.80;;;0.80;;
3543;SDS011;1786;52.870;9.578;2022-07-04T13:58:39;3.10;;;0.85;;
3543;SDS011;1786;52.870;9.578;2022-07-04T14:01:05;1.93;;;1.00;;
3543;SDS011;1786;52.870;9.578;2022-07-04T14:03:37;0.80;;;0.80;;
3543;SDS011;1786;52.870;9.578;2022-07-04T14:06:04;1.10;;;1.00;;
3543;SDS011;1786;52.870;9.578;2022-07-04T14:08:30;2.50;;;1.20;;
3543;SDS011;1786;52.870;9.578;2022-07-04T14:10:57;3.03;;;0.90;;
3543;SDS011;1786;52.870;9.578;2022-07-04T14:13:24;8.63;;;0.80;;
3543;SDS011;1786;52.870;9.578;2022-07-04T14:15:50;0.93;;;0.93;;
3543;SDS011;1786;52.870;9.578;2022-07-04T14:18:17;4.73;;;1.23;;
3543;SDS011;1786;52.870;9.578;2022-07-04T14:20:44;3.10;;;0.80;;
3543;SDS011;1786;52.870;9.578;2022-07-04T14:23:12;4.00;;;1.00;;
3543;SDS011;1786;52.870;9.578;2022-07-04T14:25:39;4.13;;;0.83;;
3543;SDS011;1786;52.870;9.578;2022-07-04T14:28:05;1.73;;;1.00;;
3543;SDS011;1786;52.870;9.578;2022-07-04T14:30:32;6.33;;;1.00;;
3543;SDS011;1786;52.870;9.578;2022-07-04T14:32:58;2.10;;;1.07;;
3543;SDS011;1786;52.870;9.578;2022-07-04T14:35:25;2.70;;;1.03;;
3543;SDS011;1786;52.870;9.578;2022-07-04T14:37:52;3.70;;;0.90;;
3543;SDS011;1786;52.870;9.578;2022-07-04T14:40:22;4.20;;;1.10;;
3543;SDS011;1786;52.870;9.578;2022-07-04T14:42:49;1.10;;;1.10;;
3543;SDS011;1786;52.870;9.578;2022-07-04T14:45:15;5.80;;;1.07;;
3543;SDS011;1786;52.870;9.578;2022-07-04T14:47:42;8.13;;;0.80;;
3543;SDS011;1786;52.870;9.578;2022-07-04T14:50:09;1.10;;;1.00;;
3543;SDS011;1786;52.870;9.578;2022-07-04T14:52:35;1.57;;;0.93;;
3543;SDS011;1786;52.870;9.578;2022-07-04T14:55:03;1.33;;;1.23;;
3543;SDS011;1786;52.870;9.578;2022-07-04T14:57:30;2.27;;;1.00;;
3543;SDS011;1786;52.870;9.578;2022-07-04T14:59:56;2.80;;;1.07;;
3543;SDS011;1786;52.870;9.578;2022-07-04T15:02:23;2.83;;;0.90;;
3543;SDS011;1786;52.870;9.578;2022-07-04T15:04:50;3.03;;;1.47;;
3543;SDS011;1786;52.870;9.578;2022-07-04T15:07:17;0.93;;;0.90;;
3543;SDS011;1786;52.870;9.578;2022-07-04T15:09:43;3.07;;;1.30;;
3543;SDS011;1786;52.870;9.578;2022-07-04T15:12:10;1.40;;;0.93;;
3543;SDS011;1786;52.870;9.578;2022-07-04T15:14:37;0.97;;;0.97;;
3543;SDS011;1786;52.870;9.578;2022-07-04T15:17:03;3.50;;;1.37;;
3543;SDS011;1786;52.870;9.578;2022-07-04T15:19:37;2.40;;;1.00;;
3543;SDS011;1786;52.870;9.578;2022-07-04T15:22:23;2.10;;;1.37;;
3543;SDS011;1786;52.870;9.578;2022-07-04T15:25:09;2.97;;;1.27;;
3543;SDS011;1786;52.870;9.578;2022-07-04T15:27:35;3.30;;;1.40;;
3543;SDS011;1786;52.870;9.578;2022-07-04T15:30:02;4.83;;;1.40;;
3543;SDS011;1786;52.870;9.578;2022-07-04T15:32:29;1.23;;;1.00;;
3543;SDS011;1786;52.870;9.578;2022-07-04T15:34:56;8.30;;;1.50;;
3543;SDS011;1786;52.870;9.578;2022-07-04T15:37:40;2.63;;;1.10;;
3543;SDS011;1786;52.870;9.578;2022-07-04T15:40:06;5.37;;;1.50;;
3543;SDS011;1786;52.870;9.578;2022-07-04T15:42:34;3.37;;;1.00;;
3543;SDS011;1786;52.870;9.578;2022-07-04T15:45:01;1.73;;;1.20;;
3543;SDS011;1786;52.870;9.578;2022-07-04T15:47:28;3.80;;;1.00;;
3543;SDS011;1786;52.870;9.578;2022-07-04T15:49:54;2.93;;;1.20;;
3543;SDS011;1786;52.870;9.578;2022-07-04T15:52:21;4.33;;;1.40;;
3543;SDS011;1786;52.870;9.578;2022-07-04T15:54:49;2.23;;;1.20;;
3543;SDS011;1786;52.870;9.578;2022-07-04T15:57:16;1.70;;;1.07;;
3543;SDS011;1786;52.870;9.578;2022-07-04T15:59:42;3.20;;;1.13;;
3543;SDS011;1786;52.870;9.578;2022-07-04T16:02:09;2.40;;;1.10;;
3543;SDS011;1786;52.870;9.578;2022-07-04T16:04:36;5.87;;;1.37;;
3543;SDS011;1786;52.870;9.578;2022-07-04T16:07:03;3.03;;;1.23;;
3543;SDS011;1786;52.870;9.578;2022-07-04T16:09:33;1.47;;;1.07;;
3543;SDS011;1786;52.870;9.578;2022-07-04T16:12:00;1.63;;;1.00;;
3543;SDS011;1786;52.870;9.578;2022-07-04T16:14:27;3.40;;;1.30;;
3543;SDS011;1786;52.870;9.578;2022-07-04T16:16:53;6.87;;;1.20;;
3543;SDS011;1786;52.870;9.578;2022-07-04T16:19:21;1.90;;;1.07;;